createdAt,value
2018-07-28T00:02:26.840Z,94.59
2018-07-28T00:04:56.351Z,94.38
2018-07-28T00:07:25.786Z,94.08
2018-07-28T00:09:54.823Z,94.78
2018-07-28T00:12:23.585Z,95.60
2018-07-28T00:14:53.238Z,95.71
2018-07-28T00:17:22.226Z,95.70
2018-07-28T00:19:51.224Z,95.87
2018-07-28T00:22:21.030Z,96.32
2018-07-28T00:24:50.250Z,96.73
2018-07-28T00:27:19.145Z,95.84
2018-07-28T00:29:48.164Z,96.50
2018-07-28T00:32:17.043Z,96.78
2018-07-28T00:34:46.138Z,96.60
2018-07-28T00:37:15.371Z,96.88
2018-07-28T00:39:44.294Z,96.11
2018-07-28T00:42:13.605Z,96.33
2018-07-28T00:44:42.596Z,97.08
2018-07-28T00:47:11.691Z,97.22
2018-07-28T00:49:41.572Z,95.94
2018-07-28T00:52:10.519Z,95.84
2018-07-28T00:54:39.819Z,96.31
2018-07-28T00:57:09.037Z,96.77
2018-07-28T00:59:38.054Z,96.64
2018-07-28T01:02:07.630Z,97.44
2018-07-28T01:04:36.795Z,97.18
2018-07-28T01:07:05.719Z,97.30
2018-07-28T01:09:34.877Z,97.83
2018-07-28T01:12:04.217Z,97.67
2018-07-28T01:14:32.967Z,98.03
2018-07-28T01:17:01.787Z,97.40
2018-07-28T01:19:30.810Z,96.53
2018-07-28T01:21:59.891Z,95.69
2018-07-28T01:24:28.912Z,95.45
2018-07-28T01:26:58.475Z,96.29
2018-07-28T01:29:27.562Z,96.00
2018-07-28T01:31:56.758Z,96.15
2018-07-28T01:34:26.504Z,96.34
2018-07-28T01:36:55.395Z,96.35
2018-07-28T01:39:25.108Z,96.24
2018-07-28T01:41:54.519Z,96.63
2018-07-28T01:44:23.556Z,96.76
2018-07-28T01:46:52.495Z,96.94
2018-07-28T01:49:21.200Z,97.46
2018-07-28T01:51:50.073Z,97.49
2018-07-28T01:54:18.868Z,97.33
2018-07-28T01:56:48.242Z,97.19
2018-07-28T01:59:17.266Z,96.67
2018-07-28T02:01:46.143Z,96.38
2018-07-28T02:04:15.678Z,96.36
2018-07-28T02:06:44.656Z,96.85
2018-07-28T02:09:13.756Z,96.75
2018-07-28T02:11:43.198Z,97.52
2018-07-28T02:14:12.431Z,97.83
2018-07-28T02:16:41.550Z,98.81
2018-07-28T02:19:10.764Z,98.59
2018-07-28T02:21:39.752Z,99.19
2018-07-28T02:24:08.745Z,98.32
2018-07-28T02:26:39.902Z,98.28
2018-07-28T02:29:10.029Z,97.46
2018-07-28T02:31:38.904Z,98.01
2018-07-28T02:34:07.835Z,97.84
2018-07-28T02:36:36.549Z,97.02
2018-07-28T02:39:08.870Z,96.42
2018-07-28T02:41:38.028Z,96.86
2018-07-28T02:44:07.444Z,97.05
2018-07-28T02:46:36.883Z,97.71
2018-07-28T02:49:06.075Z,97.55
2018-07-28T02:51:35.348Z,98.19
2018-07-28T02:54:04.195Z,97.87
2018-07-28T02:56:33.082Z,98.07
2018-07-28T02:59:02.345Z,97.50
2018-07-28T03:01:31.028Z,97.07
2018-07-28T03:04:00.097Z,96.85
2018-07-28T03:06:29.105Z,97.46
2018-07-28T03:08:58.114Z,97.78
2018-07-28T03:11:27.679Z,97.52
2018-07-28T03:13:57.170Z,97.28
2018-07-28T03:16:26.224Z,97.28
2018-07-28T03:18:55.702Z,97.84
2018-07-28T03:21:24.750Z,97.93
2018-07-28T03:23:53.794Z,97.97
2018-07-28T03:26:22.687Z,98.37
2018-07-28T03:28:52.038Z,98.14
2018-07-28T03:31:21.310Z,98.11
2018-07-28T03:33:50.420Z,98.12
2018-07-28T03:36:19.748Z,97.75
2018-07-28T03:38:48.824Z,97.03
2018-07-28T03:41:17.950Z,97.14
2018-07-28T03:43:47.091Z,97.03
2018-07-28T03:46:15.926Z,97.03
2018-07-28T03:48:44.889Z,96.71
2018-07-28T03:51:14.195Z,96.62
2018-07-28T03:53:43.434Z,96.07
2018-07-28T03:56:12.885Z,91.70
2018-07-28T03:58:42.076Z,85.30
2018-07-28T04:01:11.427Z,80.29
2018-07-28T04:03:40.415Z,76.75
2018-07-28T04:06:09.548Z,72.90
2018-07-28T04:08:39.535Z,70.84
2018-07-28T04:11:08.603Z,67.45
2018-07-28T04:13:39.195Z,65.43
2018-07-28T04:16:08.922Z,62.92
2018-07-28T04:18:38.546Z,61.45
2018-07-28T04:21:08.077Z,59.53
2018-07-28T04:23:37.311Z,57.43
2018-07-28T04:26:06.286Z,57.03
2018-07-28T04:28:35.185Z,55.12
2018-07-28T04:31:04.123Z,53.75
2018-07-28T04:33:33.339Z,51.94
2018-07-28T04:36:02.467Z,50.78
2018-07-28T04:38:31.903Z,49.33
2018-07-28T04:41:01.034Z,48.24
2018-07-28T04:43:30.828Z,49.00
2018-07-28T04:46:00.205Z,48.28
2018-07-28T04:48:29.708Z,48.54
2018-07-28T04:50:59.031Z,47.33
2018-07-28T04:53:27.928Z,47.18
2018-07-28T04:55:57.541Z,45.38
2018-07-28T04:58:27.070Z,42.94
2018-07-28T05:00:56.068Z,42.03
2018-07-28T05:03:24.999Z,40.38
2018-07-28T05:05:54.087Z,40.68
2018-07-28T05:08:23.174Z,40.41
2018-07-28T05:10:52.268Z,38.82
2018-07-28T05:13:21.888Z,40.58
2018-07-28T05:15:50.765Z,37.72
2018-07-28T05:18:19.626Z,37.51
2018-07-28T05:20:48.850Z,37.06
2018-07-28T05:23:17.900Z,37.91
2018-07-28T05:25:47.157Z,38.92
2018-07-28T05:28:16.599Z,38.84
2018-07-28T05:30:46.378Z,38.10
2018-07-28T05:33:15.415Z,38.80
2018-07-28T05:35:48.877Z,36.98
2018-07-28T05:38:17.863Z,36.64
2018-07-28T05:40:46.868Z,36.59
2018-07-28T05:43:15.770Z,36.65
2018-07-28T05:45:44.932Z,39.18
2018-07-28T05:48:14.777Z,40.04
2018-07-28T05:50:44.010Z,40.61
2018-07-28T05:53:12.896Z,40.12
2018-07-28T05:55:41.956Z,40.71
2018-07-28T05:58:11.371Z,39.86
2018-07-28T06:00:41.382Z,39.71
2018-07-28T06:03:10.602Z,41.26
2018-07-28T06:05:39.898Z,43.75
2018-07-28T06:08:08.967Z,43.86
2018-07-28T06:10:38.727Z,40.51
2018-07-28T06:13:08.842Z,38.62
2018-07-28T06:15:38.410Z,39.28
2018-07-28T06:18:07.376Z,41.34
2018-07-28T06:20:36.988Z,43.43
2018-07-28T06:23:06.241Z,42.20
2018-07-28T06:25:35.385Z,41.90
2018-07-28T06:28:05.713Z,42.03
2018-07-28T06:30:35.451Z,41.72
2018-07-28T06:33:04.586Z,43.04
2018-07-28T06:35:33.812Z,41.96
2018-07-28T06:38:02.760Z,41.77
2018-07-28T06:40:31.753Z,43.15
2018-07-28T06:43:01.049Z,43.93
2018-07-28T06:45:30.103Z,40.90
2018-07-28T06:47:58.816Z,38.41
2018-07-28T06:50:28.226Z,38.25
2018-07-28T06:52:57.691Z,37.18
2018-07-28T06:55:26.708Z,35.61
2018-07-28T06:57:56.207Z,36.34
2018-07-28T07:00:25.104Z,36.04
2018-07-28T07:02:54.206Z,36.92
2018-07-28T07:05:23.411Z,37.25
2018-07-28T07:07:52.738Z,36.25
2018-07-28T07:10:21.989Z,37.47
2018-07-28T07:12:51.534Z,36.74
2018-07-28T07:15:24.283Z,34.93
2018-07-28T07:17:53.616Z,32.67
2018-07-28T07:20:22.728Z,33.09
2018-07-28T07:22:51.570Z,32.81
2018-07-28T07:25:20.396Z,33.77
2018-07-28T07:27:49.084Z,35.14
2018-07-28T07:30:18.507Z,37.40
2018-07-28T07:32:47.714Z,35.89
2018-07-28T07:35:17.402Z,36.66
2018-07-28T07:37:46.880Z,34.21
2018-07-28T07:40:15.959Z,33.77
2018-07-28T07:42:45.102Z,34.90
2018-07-28T07:45:14.192Z,35.54
2018-07-28T07:47:43.187Z,33.62
2018-07-28T07:50:11.907Z,33.22
2018-07-28T07:52:41.039Z,36.45
2018-07-28T07:55:10.997Z,37.65
2018-07-28T07:57:40.415Z,37.34
2018-07-28T08:00:10.108Z,34.27
2018-07-28T08:02:39.614Z,33.09
2018-07-28T08:05:09.758Z,31.51
2018-07-28T08:07:39.139Z,31.41
2018-07-28T08:10:08.172Z,31.25
2018-07-28T08:12:37.072Z,31.46
2018-07-28T08:15:06.348Z,30.78
2018-07-28T08:17:35.246Z,29.79
2018-07-28T08:20:05.188Z,30.47
2018-07-28T08:22:34.187Z,30.47
2018-07-28T08:25:04.000Z,31.02
2018-07-28T08:27:32.962Z,34.40
2018-07-28T08:30:02.410Z,35.54
2018-07-28T08:32:32.107Z,37.09
2018-07-28T08:35:01.230Z,39.70
2018-07-28T08:37:30.666Z,37.55
2018-07-28T08:39:59.858Z,35.36
2018-07-28T08:42:29.298Z,34.21
2018-07-28T08:44:58.866Z,33.57
2018-07-28T08:47:28.419Z,32.55
2018-07-28T08:49:57.198Z,32.75
2018-07-28T08:52:26.344Z,32.31
2018-07-28T08:54:55.716Z,32.87
2018-07-28T08:57:24.380Z,33.18
2018-07-28T08:59:53.826Z,33.10
2018-07-28T09:02:38.094Z,33.39
2018-07-28T09:05:07.898Z,35.71
2018-07-28T09:07:36.871Z,39.33
2018-07-28T09:10:06.064Z,38.18
2018-07-28T09:12:35.078Z,36.94
2018-07-28T09:15:04.230Z,37.09
2018-07-28T09:17:33.577Z,36.46
2018-07-28T09:20:02.783Z,35.88
2018-07-28T09:22:31.588Z,37.52
2018-07-28T09:25:00.595Z,37.73
2018-07-28T09:27:29.548Z,38.19
2018-07-28T09:29:58.429Z,38.51
2018-07-28T09:32:27.972Z,39.57
2018-07-28T09:34:57.136Z,39.46
2018-07-28T09:37:26.210Z,40.26
2018-07-28T09:39:55.510Z,39.89
2018-07-28T09:42:24.627Z,39.57
2018-07-28T09:44:53.296Z,38.90
2018-07-28T09:47:22.273Z,37.72
2018-07-28T09:49:51.192Z,37.23
2018-07-28T09:52:20.110Z,37.32
2018-07-28T09:54:49.222Z,37.88
2018-07-28T09:57:18.319Z,38.01
2018-07-28T09:59:47.158Z,38.48
2018-07-28T10:02:16.877Z,38.39
2018-07-28T10:04:45.779Z,38.00
2018-07-28T10:07:15.191Z,38.68
2018-07-28T10:09:44.553Z,40.54
2018-07-28T10:12:13.475Z,40.84
2018-07-28T10:14:42.415Z,39.35
2018-07-28T10:17:12.383Z,37.95
2018-07-28T10:19:41.341Z,39.38
2018-07-28T10:22:10.308Z,40.79
2018-07-28T10:24:39.264Z,41.43
2018-07-28T10:27:08.513Z,40.88
2018-07-28T10:29:37.651Z,41.72
2018-07-28T10:32:07.026Z,43.34
2018-07-28T10:34:36.212Z,44.01
2018-07-28T10:37:05.316Z,42.23
2018-07-28T10:39:35.291Z,42.44
2018-07-28T10:42:04.112Z,42.35
2018-07-28T10:44:33.971Z,43.35
2018-07-28T10:47:03.103Z,43.82
2018-07-28T10:49:32.163Z,44.87
2018-07-28T10:52:01.050Z,44.40
2018-07-28T10:54:30.550Z,43.29
2018-07-28T10:56:59.396Z,43.05
2018-07-28T10:59:28.229Z,43.21
2018-07-28T11:01:58.494Z,43.20
2018-07-28T11:04:27.451Z,42.53
2018-07-28T11:06:56.825Z,43.82
2018-07-28T11:09:25.967Z,44.19
2018-07-28T11:11:55.663Z,43.57
2018-07-28T11:14:24.447Z,43.12
2018-07-28T11:16:53.787Z,41.81
2018-07-28T11:19:22.643Z,40.48
2018-07-28T11:21:51.731Z,39.69
2018-07-28T11:24:21.170Z,40.16
2018-07-28T11:26:49.923Z,40.37
2018-07-28T11:29:18.931Z,44.80
2018-07-28T11:31:58.837Z,42.63
2018-07-28T11:34:38.831Z,44.43
2018-07-28T11:37:27.203Z,43.31
2018-07-28T11:40:06.977Z,43.13
2018-07-28T11:42:47.246Z,43.28
2018-07-28T11:45:17.506Z,43.41
2018-07-28T11:47:46.619Z,42.61
2018-07-28T11:50:15.508Z,42.89
2018-07-28T11:52:44.546Z,41.26
2018-07-28T11:55:13.467Z,43.78
2018-07-28T11:57:43.087Z,42.52
2018-07-28T12:00:12.270Z,42.46
2018-07-28T12:02:41.444Z,42.57
2018-07-28T12:05:10.990Z,41.41
2018-07-28T12:07:40.219Z,39.12
2018-07-28T12:10:10.584Z,41.07
2018-07-28T12:12:40.085Z,39.79
2018-07-28T12:15:09.114Z,39.19
2018-07-28T12:17:38.174Z,37.77
2018-07-28T12:20:07.495Z,37.85
2018-07-28T12:22:36.276Z,39.49
2018-07-28T12:25:05.875Z,39.09
2018-07-28T12:27:35.196Z,38.96
2018-07-28T12:30:04.380Z,38.45
2018-07-28T12:32:33.462Z,38.44
2018-07-28T12:35:03.081Z,37.91
2018-07-28T12:37:32.069Z,36.73
2018-07-28T12:40:00.967Z,35.34
2018-07-28T12:42:30.766Z,34.96
2018-07-28T12:44:59.765Z,35.97
2018-07-28T12:47:28.674Z,35.23
2018-07-28T12:49:57.966Z,35.04
2018-07-28T12:52:26.760Z,35.42
2018-07-28T12:54:59.523Z,35.11
2018-07-28T12:57:28.614Z,33.94
2018-07-28T12:59:57.508Z,32.71
2018-07-28T13:02:26.728Z,33.91
2018-07-28T13:04:55.604Z,33.29
2018-07-28T13:07:24.617Z,33.24
2018-07-28T13:09:54.433Z,34.27
2018-07-28T13:12:23.540Z,34.40
2018-07-28T13:14:52.728Z,34.45
2018-07-28T13:17:21.662Z,34.05
2018-07-28T13:19:51.232Z,36.07
2018-07-28T13:22:20.206Z,37.49
2018-07-28T13:24:49.162Z,37.29
2018-07-28T13:27:17.890Z,37.37
2018-07-28T13:29:46.725Z,37.80
2018-07-28T13:32:16.123Z,37.83
2018-07-28T13:34:45.100Z,37.73
2018-07-28T13:37:13.867Z,38.10
2018-07-28T13:39:42.895Z,38.36
2018-07-28T13:42:11.992Z,38.75
2018-07-28T13:44:40.967Z,39.53
2018-07-28T13:47:10.802Z,39.90
2018-07-28T13:49:40.296Z,40.27
2018-07-28T13:52:09.910Z,40.65
2018-07-28T13:54:39.218Z,42.58
2018-07-28T13:57:08.288Z,42.35
2018-07-28T13:59:37.179Z,42.73
2018-07-28T14:02:06.414Z,42.57
2018-07-28T14:04:35.602Z,42.37
2018-07-28T14:07:04.686Z,43.28
2018-07-28T14:09:34.210Z,43.44
2018-07-28T14:12:03.683Z,43.33
2018-07-28T14:14:32.956Z,43.46
2018-07-28T14:17:02.974Z,42.46
2018-07-28T14:19:31.903Z,41.95
2018-07-28T14:22:01.417Z,42.17
2018-07-28T14:24:30.546Z,41.98
2018-07-28T14:26:59.307Z,42.06
2018-07-28T14:29:28.303Z,41.32
2018-07-28T14:31:57.619Z,41.42
2018-07-28T14:34:26.444Z,41.62
2018-07-28T14:36:55.589Z,40.79
2018-07-28T14:39:24.606Z,40.61
2018-07-28T14:41:53.583Z,39.91
2018-07-28T14:44:22.766Z,39.79
2018-07-28T14:46:51.838Z,41.38
2018-07-28T14:49:20.682Z,40.23
2018-07-28T14:51:50.486Z,38.43
2018-07-28T14:54:19.797Z,39.92
2018-07-28T14:56:48.763Z,40.24
2018-07-28T14:59:17.771Z,38.56
2018-07-28T15:01:47.315Z,39.01
2018-07-28T15:04:16.967Z,38.72
2018-07-28T15:06:45.740Z,39.41
2018-07-28T15:09:15.207Z,39.84
2018-07-28T15:11:44.327Z,39.76
2018-07-28T15:14:13.062Z,39.25
2018-07-28T15:16:43.640Z,40.88
2018-07-28T15:19:12.817Z,40.08
2018-07-28T15:21:41.614Z,41.79
2018-07-28T15:24:10.596Z,44.31
2018-07-28T15:26:39.662Z,44.80
2018-07-28T15:29:08.581Z,44.52
2018-07-28T15:31:37.786Z,44.26
2018-07-28T15:34:06.974Z,44.48
2018-07-28T15:36:36.087Z,43.99
2018-07-28T15:39:06.804Z,42.29
2018-07-28T15:41:36.512Z,41.58
2018-07-28T15:44:05.537Z,41.52
2018-07-28T15:46:34.929Z,42.18
2018-07-28T15:49:04.455Z,41.42
2018-07-28T15:51:33.281Z,40.41
2018-07-28T15:54:02.134Z,40.86
2018-07-28T15:56:31.603Z,39.57
2018-07-28T15:59:01.207Z,38.98
2018-07-28T16:01:30.647Z,38.84
2018-07-28T16:03:59.419Z,39.07
2018-07-28T16:06:28.653Z,40.02
2018-07-28T16:08:57.408Z,42.35
2018-07-28T16:11:26.585Z,43.52
2018-07-28T16:13:56.221Z,43.26
2018-07-28T16:16:25.571Z,43.38
2018-07-28T16:18:55.122Z,43.51
2018-07-28T16:21:24.711Z,43.49
2018-07-28T16:23:53.980Z,44.40
2018-07-28T16:26:23.139Z,44.66
2018-07-28T16:28:52.210Z,44.84
2018-07-28T16:31:21.053Z,45.64
2018-07-28T16:33:50.168Z,45.30
2018-07-28T16:36:19.028Z,46.27
2018-07-28T16:38:48.323Z,47.08
2018-07-28T16:41:17.246Z,47.06
2018-07-28T16:43:46.185Z,47.09
2018-07-28T16:46:15.614Z,47.51
2018-07-28T16:48:44.682Z,48.01
2018-07-28T16:51:13.942Z,48.36
2018-07-28T16:53:44.254Z,48.13
2018-07-28T16:56:13.106Z,48.38
2018-07-28T16:58:41.936Z,48.94
2018-07-28T17:01:10.895Z,50.58
2018-07-28T17:03:40.706Z,51.83
2018-07-28T17:06:09.672Z,52.35
2018-07-28T17:08:38.918Z,52.69
2018-07-28T17:11:08.472Z,53.23
2018-07-28T17:13:38.248Z,53.79
2018-07-28T17:16:07.613Z,55.54
2018-07-28T17:18:36.520Z,55.19
2018-07-28T17:21:06.622Z,56.54
2018-07-28T17:23:35.554Z,58.05
2018-07-28T17:26:05.775Z,59.05
2018-07-28T17:28:34.851Z,59.87
2018-07-28T17:31:06.013Z,60.49
2018-07-28T17:33:36.125Z,61.28
2018-07-28T17:36:06.592Z,61.76
2018-07-28T17:38:36.061Z,62.82
2018-07-28T17:41:05.597Z,62.81
2018-07-28T17:43:36.111Z,63.18
2018-07-28T17:46:05.161Z,63.58
2018-07-28T17:48:37.457Z,62.93
2018-07-28T17:51:06.627Z,63.31
2018-07-28T17:53:35.477Z,63.87
2018-07-28T17:56:06.910Z,64.13
2018-07-28T17:58:38.084Z,65.21
2018-07-28T18:01:07.520Z,68.76
2018-07-28T18:03:37.683Z,72.17
2018-07-28T18:06:08.366Z,73.45
2018-07-28T18:08:37.630Z,75.99
2018-07-28T18:11:06.637Z,77.43
2018-07-28T18:13:35.834Z,77.07
2018-07-28T18:16:04.518Z,78.34
2018-07-28T18:18:34.004Z,76.47
2018-07-28T18:21:03.334Z,78.59
2018-07-28T18:23:32.108Z,76.91
2018-07-28T18:26:01.290Z,76.56
2018-07-28T18:28:31.148Z,73.46
2018-07-28T18:31:00.935Z,74.47
2018-07-28T18:33:29.831Z,73.37
2018-07-28T18:35:58.522Z,71.38
2018-07-28T18:38:27.397Z,71.17
2018-07-28T18:40:56.410Z,70.96
2018-07-28T18:43:25.601Z,70.04
2018-07-28T18:45:54.561Z,69.68
2018-07-28T18:48:23.818Z,68.97
2018-07-28T18:50:53.699Z,69.41
2018-07-28T18:53:23.430Z,68.60
2018-07-28T18:55:52.516Z,68.83
2018-07-28T18:58:21.857Z,69.56
2018-07-28T19:00:50.915Z,70.13
2018-07-28T19:03:20.378Z,69.91
2018-07-28T19:05:49.462Z,70.87
2018-07-28T19:08:18.547Z,72.41
2018-07-28T19:10:47.539Z,72.51
2018-07-28T19:13:21.565Z,72.67
2018-07-28T19:15:50.652Z,73.99
2018-07-28T19:18:24.859Z,74.06
2018-07-28T19:20:53.937Z,74.17
2018-07-28T19:23:28.330Z,75.76
2018-07-28T19:25:57.955Z,76.08
2018-07-28T19:28:31.851Z,76.20
2018-07-28T19:31:00.713Z,76.52
2018-07-28T19:33:29.944Z,76.67
2018-07-28T19:36:04.683Z,76.02
2018-07-28T19:38:33.848Z,76.05
2018-07-28T19:41:02.819Z,76.53
2018-07-28T19:43:32.006Z,75.88
2018-07-28T19:46:01.571Z,76.86
2018-07-28T19:48:30.591Z,78.92
2018-07-28T19:51:00.009Z,80.71
2018-07-28T19:53:29.174Z,82.70
2018-07-28T19:55:58.179Z,83.33
2018-07-28T19:58:27.592Z,84.03
2018-07-28T20:00:56.465Z,84.45
2018-07-28T20:03:25.539Z,85.19
2018-07-28T20:05:54.427Z,85.90
2018-07-28T20:08:23.439Z,86.12
2018-07-28T20:10:52.359Z,86.18
2018-07-28T20:13:21.567Z,85.87
2018-07-28T20:15:50.642Z,86.65
2018-07-28T20:18:19.736Z,86.58
2018-07-28T20:20:49.080Z,88.75
2018-07-28T20:23:18.112Z,89.48
2018-07-28T20:25:47.199Z,89.40
2018-07-28T20:28:16.207Z,91.57
2018-07-28T20:30:44.910Z,90.18
2018-07-28T20:33:14.214Z,90.46
2018-07-28T20:35:43.807Z,90.96
2018-07-28T20:38:12.964Z,91.83
2018-07-28T20:40:42.524Z,91.64
2018-07-28T20:43:12.067Z,91.97
2018-07-28T20:45:41.119Z,91.57
2018-07-28T20:48:09.943Z,91.65
2018-07-28T20:50:38.883Z,92.70
2018-07-28T20:53:07.754Z,91.49
2018-07-28T20:55:36.802Z,91.11
2018-07-28T20:58:05.809Z,91.61
2018-07-28T21:00:34.677Z,92.86
2018-07-28T21:03:03.770Z,92.79
2018-07-28T21:05:32.854Z,93.86
2018-07-28T21:08:01.847Z,91.12
2018-07-28T21:10:31.006Z,92.10
2018-07-28T21:13:00.471Z,91.77
2018-07-28T21:15:29.583Z,92.62
2018-07-28T21:17:59.479Z,91.92
2018-07-28T21:20:28.488Z,91.52
2018-07-28T21:22:57.450Z,92.29
2018-07-28T21:25:26.284Z,89.76
2018-07-28T21:27:55.172Z,89.93
2018-07-28T21:30:24.243Z,89.83
2018-07-28T21:32:53.586Z,90.17
2018-07-28T21:35:22.747Z,91.25
2018-07-28T21:37:52.350Z,89.15
2018-07-28T21:40:21.852Z,89.68
2018-07-28T21:42:50.824Z,89.21
2018-07-28T21:45:20.547Z,90.08
2018-07-28T21:47:49.750Z,90.97
2018-07-28T21:50:18.651Z,91.41
2018-07-28T21:52:47.535Z,89.53
2018-07-28T21:55:17.566Z,90.25
2018-07-28T21:57:46.660Z,90.47
2018-07-28T22:00:15.338Z,91.84
2018-07-28T22:02:44.415Z,90.66
2018-07-28T22:05:13.561Z,89.15
2018-07-28T22:07:42.496Z,89.10
2018-07-28T22:10:11.735Z,87.80
2018-07-28T22:12:40.881Z,88.04
2018-07-28T22:15:09.986Z,88.68
2018-07-28T22:17:39.088Z,88.42
2018-07-28T22:20:08.263Z,87.99
2018-07-28T22:22:37.934Z,87.14
2018-07-28T22:25:07.420Z,86.82
2018-07-28T22:27:37.018Z,86.99
2018-07-28T22:30:06.738Z,86.70
2018-07-28T22:32:35.964Z,86.36
2018-07-28T22:35:05.253Z,85.89
2018-07-28T22:37:34.397Z,86.48
2018-07-28T22:40:03.647Z,86.07
2018-07-28T22:42:43.457Z,85.53
2018-07-28T22:45:12.617Z,86.41
2018-07-28T22:47:41.874Z,86.32
2018-07-28T22:50:11.094Z,86.72
2018-07-28T22:52:40.270Z,87.00
2018-07-28T22:55:09.579Z,86.05
2018-07-28T22:57:39.118Z,86.26
2018-07-28T23:00:08.754Z,86.11
2018-07-28T23:02:37.907Z,87.02
2018-07-28T23:05:07.567Z,86.66
2018-07-28T23:07:36.693Z,86.77
2018-07-28T23:10:06.310Z,86.01
2018-07-28T23:12:35.849Z,86.07
2018-07-28T23:15:05.315Z,87.29
2018-07-28T23:17:34.396Z,85.88
2018-07-28T23:20:03.960Z,86.71
2018-07-28T23:22:33.218Z,86.31
2018-07-28T23:25:02.333Z,85.85
2018-07-28T23:27:31.497Z,85.60
2018-07-28T23:30:00.618Z,85.58
2018-07-28T23:32:29.702Z,85.48
2018-07-28T23:34:59.096Z,84.83
2018-07-28T23:37:28.314Z,85.43
2018-07-28T23:39:57.415Z,85.92
2018-07-28T23:42:26.368Z,86.16
2018-07-28T23:44:55.126Z,87.41
2018-07-28T23:47:23.784Z,86.19
2018-07-28T23:49:53.615Z,86.27
2018-07-28T23:52:22.386Z,86.43
2018-07-28T23:54:51.091Z,86.11
2018-07-28T23:57:20.219Z,86.83
2018-07-28T23:59:48.981Z,86.85
